sensor_id;sensor_type;location;lat;lon;timestamp;P1;durP1;ratioP1;P2;durP2;ratioP2
40669;SDS011;26355;45.528;9.234;2023-03-23T00:01:20;16.20;;;5.90;;
40669;SDS011;26355;45.528;9.234;2023-03-23T00:03:48;14.75;;;5.50;;
40669;SDS011;26355;45.528;9.234;2023-03-23T00:06:15;17.05;;;5.57;;
40669;SDS011;26355;45.528;9.234;2023-03-23T00:08:46;16.58;;;6.07;;
40669;SDS011;26355;45.528;9.234;2023-03-23T00:11:14;15.77;;;5.88;;
40669;SDS011;26355;45.528;9.234;2023-03-23T00:13:46;16.45;;;6.22;;
40669;SDS011;26355;45.528;9.234;2023-03-23T00:16:15;17.27;;;7.47;;
40669;SDS011;26355;45.528;9.234;2023-03-23T00:18:51;15.98;;;6.45;;
40669;SDS011;26355;45.528;9.234;2023-03-23T00:21:18;15.43;;;6.55;;
40669;SDS011;26355;45.528;9.234;2023-03-23T00:23:44;17.52;;;6.97;;
40669;SDS011;26355;45.528;9.234;2023-03-23T00:26:10;16.90;;;7.03;;
40669;SDS011;26355;45.528;9.234;2023-03-23T00:28:37;19.67;;;7.05;;
40669;SDS011;26355;45.528;9.234;2023-03-23T00:31:05;19.10;;;7.53;;
40669;SDS011;26355;45.528;9.234;2023-03-23T00:33:33;18.00;;;6.97;;
40669;SDS011;26355;45.528;9.234;2023-03-23T00:36:12;17.77;;;7.47;;
40669;SDS011;26355;45.528;9.234;2023-03-23T00:38:39;16.92;;;7.82;;
40669;SDS011;26355;45.528;9.234;2023-03-23T00:41:06;17.42;;;6.60;;
40669;SDS011;26355;45.528;9.234;2023-03-23T00:43:32;16.38;;;7.40;;
40669;SDS011;26355;45.528;9.234;2023-03-23T00:46:01;18.38;;;6.43;;
40669;SDS011;26355;45.528;9.234;2023-03-23T00:48:28;18.90;;;7.95;;
40669;SDS011;26355;45.528;9.234;2023-03-23T00:50:54;17.40;;;6.93;;
40669;SDS011;26355;45.528;9.234;2023-03-23T00:53:20;18.42;;;7.28;;
40669;SDS011;26355;45.528;9.234;2023-03-23T00:55:47;16.45;;;7.25;;
40669;SDS011;26355;45.528;9.234;2023-03-23T00:58:14;16.10;;;6.37;;
40669;SDS011;26355;45.528;9.234;2023-03-23T01:00:40;16.83;;;6.72;;
40669;SDS011;26355;45.528;9.234;2023-03-23T01:03:08;16.20;;;7.00;;
40669;SDS011;26355;45.528;9.234;2023-03-23T01:05:37;16.90;;;6.03;;
40669;SDS011;26355;45.528;9.234;2023-03-23T01:08:04;17.15;;;6.22;;
40669;SDS011;26355;45.528;9.234;2023-03-23T01:10:31;16.67;;;6.55;;
40669;SDS011;26355;45.528;9.234;2023-03-23T01:12:58;16.05;;;6.38;;
40669;SDS011;26355;45.528;9.234;2023-03-23T01:15:25;18.20;;;6.47;;
40669;SDS011;26355;45.528;9.234;2023-03-23T01:17:52;16.58;;;6.65;;
40669;SDS011;26355;45.528;9.234;2023-03-23T01:20:18;16.15;;;7.13;;
40669;SDS011;26355;45.528;9.234;2023-03-23T01:22:44;16.67;;;6.88;;
40669;SDS011;26355;45.528;9.234;2023-03-23T01:25:10;18.52;;;6.60;;
40669;SDS011;26355;45.528;9.234;2023-03-23T01:27:38;16.27;;;6.93;;
40669;SDS011;26355;45.528;9.234;2023-03-23T01:30:06;15.48;;;6.95;;
40669;SDS011;26355;45.528;9.234;2023-03-23T01:32:33;16.80;;;6.57;;
40669;SDS011;26355;45.528;9.234;2023-03-23T01:34:59;17.25;;;6.15;;
40669;SDS011;26355;45.528;9.234;2023-03-23T01:37:25;16.48;;;6.75;;
40669;SDS011;26355;45.528;9.234;2023-03-23T01:39:54;17.73;;;6.80;;
40669;SDS011;26355;45.528;9.234;2023-03-23T01:42:24;16.67;;;6.72;;
40669;SDS011;26355;45.528;9.234;2023-03-23T01:47:39;17.55;;;6.97;;
40669;SDS011;26355;45.528;9.234;2023-03-23T01:50:05;15.77;;;6.40;;
40669;SDS011;26355;45.528;9.234;2023-03-23T01:52:33;17.13;;;6.78;;
40669;SDS011;26355;45.528;9.234;2023-03-23T01:54:59;14.35;;;5.90;;
40669;SDS011;26355;45.528;9.234;2023-03-23T01:57:25;17.90;;;6.22;;
40669;SDS011;26355;45.528;9.234;2023-03-23T01:59:52;18.98;;;6.20;;
40669;SDS011;26355;45.528;9.234;2023-03-23T02:02:21;15.95;;;5.85;;
40669;SDS011;26355;45.528;9.234;2023-03-23T02:04:48;16.33;;;5.72;;
40669;SDS011;26355;45.528;9.234;2023-03-23T02:07:15;14.73;;;5.80;;
40669;SDS011;26355;45.528;9.234;2023-03-23T02:09:44;16.30;;;5.80;;
40669;SDS011;26355;45.528;9.234;2023-03-23T02:12:10;15.43;;;5.80;;
40669;SDS011;26355;45.528;9.234;2023-03-23T02:14:36;15.77;;;5.93;;
40669;SDS011;26355;45.528;9.234;2023-03-23T02:25:18;16.83;;;6.30;;
40669;SDS011;26355;45.528;9.234;2023-03-23T02:36:05;15.50;;;6.10;;
40669;SDS011;26355;45.528;9.234;2023-03-23T02:41:35;15.43;;;5.63;;
40669;SDS011;26355;45.528;9.234;2023-03-23T02:44:07;15.35;;;6.10;;
40669;SDS011;26355;45.528;9.234;2023-03-23T02:46:33;15.25;;;5.65;;
40669;SDS011;26355;45.528;9.234;2023-03-23T02:49:00;15.50;;;6.05;;
40669;SDS011;26355;45.528;9.234;2023-03-23T02:51:28;15.82;;;5.88;;
40669;SDS011;26355;45.528;9.234;2023-03-23T02:53:55;16.17;;;5.87;;
40669;SDS011;26355;45.528;9.234;2023-03-23T02:56:22;16.23;;;6.32;;
40669;SDS011;26355;45.528;9.234;2023-03-23T02:58:50;15.95;;;5.95;;
40669;SDS011;26355;45.528;9.234;2023-03-23T03:03:50;19.45;;;6.65;;
40669;SDS011;26355;45.528;9.234;2023-03-23T03:08:55;16.98;;;6.28;;
40669;SDS011;26355;45.528;9.234;2023-03-23T03:11:30;16.65;;;6.78;;
40669;SDS011;26355;45.528;9.234;2023-03-23T03:14:00;16.60;;;6.28;;
40669;SDS011;26355;45.528;9.234;2023-03-23T03:16:40;17.10;;;6.72;;
40669;SDS011;26355;45.528;9.234;2023-03-23T03:21:46;17.10;;;6.88;;
40669;SDS011;26355;45.528;9.234;2023-03-23T03:24:15;16.35;;;6.57;;
40669;SDS011;26355;45.528;9.234;2023-03-23T03:26:44;18.02;;;6.47;;
40669;SDS011;26355;45.528;9.234;2023-03-23T03:29:16;15.52;;;6.07;;
40669;SDS011;26355;45.528;9.234;2023-03-23T03:31:54;16.92;;;6.03;;
40669;SDS011;26355;45.528;9.234;2023-03-23T03:34:21;15.10;;;5.78;;
40669;SDS011;26355;45.528;9.234;2023-03-23T03:36:49;17.45;;;5.85;;
40669;SDS011;26355;45.528;9.234;2023-03-23T03:39:17;15.98;;;6.70;;
40669;SDS011;26355;45.528;9.234;2023-03-23T03:41:44;14.52;;;5.95;;
40669;SDS011;26355;45.528;9.234;2023-03-23T03:44:10;16.08;;;6.80;;
40669;SDS011;26355;45.528;9.234;2023-03-23T03:46:37;14.65;;;5.93;;
40669;SDS011;26355;45.528;9.234;2023-03-23T03:49:04;15.63;;;6.35;;
40669;SDS011;26355;45.528;9.234;2023-03-23T03:51:32;18.13;;;6.65;;
40669;SDS011;26355;45.528;9.234;2023-03-23T03:53:59;16.08;;;6.07;;
40669;SDS011;26355;45.528;9.234;2023-03-23T03:56:25;17.27;;;6.85;;
40669;SDS011;26355;45.528;9.234;2023-03-23T03:58:51;16.05;;;6.22;;
40669;SDS011;26355;45.528;9.234;2023-03-23T04:01:19;15.00;;;5.70;;
40669;SDS011;26355;45.528;9.234;2023-03-23T04:03:49;16.88;;;6.80;;
40669;SDS011;26355;45.528;9.234;2023-03-23T04:06:16;18.53;;;6.97;;
40669;SDS011;26355;45.528;9.234;2023-03-23T04:08:42;17.47;;;6.53;;
40669;SDS011;26355;45.528;9.234;2023-03-23T04:11:09;16.00;;;6.72;;
40669;SDS011;26355;45.528;9.234;2023-03-23T04:16:03;17.20;;;6.57;;
40669;SDS011;26355;45.528;9.234;2023-03-23T04:18:29;15.68;;;6.38;;
40669;SDS011;26355;45.528;9.234;2023-03-23T04:20:57;17.70;;;6.47;;
40669;SDS011;26355;45.528;9.234;2023-03-23T04:23:24;16.73;;;6.30;;
40669;SDS011;26355;45.528;9.234;2023-03-23T04:28:18;17.70;;;6.97;;
40669;SDS011;26355;45.528;9.234;2023-03-23T04:30:48;16.85;;;6.30;;
40669;SDS011;26355;45.528;9.234;2023-03-23T04:33:17;18.13;;;7.00;;
40669;SDS011;26355;45.528;9.234;2023-03-23T04:35:44;21.93;;;7.33;;
40669;SDS011;26355;45.528;9.234;2023-03-23T04:38:11;15.98;;;6.72;;
40669;SDS011;26355;45.528;9.234;2023-03-23T04:40:38;17.40;;;7.03;;
40669;SDS011;26355;45.528;9.234;2023-03-23T04:43:05;15.35;;;6.60;;
40669;SDS011;26355;45.528;9.234;2023-03-23T04:45:32;14.80;;;6.22;;
40669;SDS011;26355;45.528;9.234;2023-03-23T04:47:59;17.02;;;6.57;;
40669;SDS011;26355;45.528;9.234;2023-03-23T04:50:27;16.25;;;6.40;;
40669;SDS011;26355;45.528;9.234;2023-03-23T04:52:55;17.50;;;5.80;;
40669;SDS011;26355;45.528;9.234;2023-03-23T04:55:23;15.05;;;6.28;;
40669;SDS011;26355;45.528;9.234;2023-03-23T05:00:16;15.30;;;6.03;;
40669;SDS011;26355;45.528;9.234;2023-03-23T05:02:43;14.02;;;5.80;;
40669;SDS011;26355;45.528;9.234;2023-03-23T05:05:11;15.73;;;5.25;;
40669;SDS011;26355;45.528;9.234;2023-03-23T05:07:38;14.02;;;5.10;;
40669;SDS011;26355;45.528;9.234;2023-03-23T05:10:05;16.40;;;5.70;;
40669;SDS011;26355;45.528;9.234;2023-03-23T05:12:32;13.98;;;5.78;;
40669;SDS011;26355;45.528;9.234;2023-03-23T05:14:58;15.75;;;5.20;;
40669;SDS011;26355;45.528;9.234;2023-03-23T05:17:24;16.70;;;5.45;;
40669;SDS011;26355;45.528;9.234;2023-03-23T05:19:52;14.50;;;5.20;;
40669;SDS011;26355;45.528;9.234;2023-03-23T05:22:19;16.50;;;5.93;;
40669;SDS011;26355;45.528;9.234;2023-03-23T05:24:46;17.45;;;5.75;;
40669;SDS011;26355;45.528;9.234;2023-03-23T05:27:12;13.77;;;5.35;;
40669;SDS011;26355;45.528;9.234;2023-03-23T05:29:39;16.55;;;5.60;;
40669;SDS011;26355;45.528;9.234;2023-03-23T05:32:06;15.30;;;5.30;;
40669;SDS011;26355;45.528;9.234;2023-03-23T05:34:33;14.27;;;5.90;;
40669;SDS011;26355;45.528;9.234;2023-03-23T05:37:00;16.65;;;5.78;;
40669;SDS011;26355;45.528;9.234;2023-03-23T05:39:27;15.13;;;5.53;;
40669;SDS011;26355;45.528;9.234;2023-03-23T05:41:54;15.18;;;6.60;;
40669;SDS011;26355;45.528;9.234;2023-03-23T05:44:20;16.20;;;5.37;;
40669;SDS011;26355;45.528;9.234;2023-03-23T05:46:46;14.85;;;5.60;;
40669;SDS011;26355;45.528;9.234;2023-03-23T05:49:11;15.57;;;5.35;;
40669;SDS011;26355;45.528;9.234;2023-03-23T05:51:38;15.70;;;5.97;;
40669;SDS011;26355;45.528;9.234;2023-03-23T05:54:04;15.23;;;5.32;;
40669;SDS011;26355;45.528;9.234;2023-03-23T05:56:30;14.50;;;5.72;;
40669;SDS011;26355;45.528;9.234;2023-03-23T05:58:56;16.73;;;5.97;;
40669;SDS011;26355;45.528;9.234;2023-03-23T06:01:25;17.60;;;5.85;;
40669;SDS011;26355;45.528;9.234;2023-03-23T06:03:50;15.05;;;5.85;;
40669;SDS011;26355;45.528;9.234;2023-03-23T06:06:19;14.95;;;5.60;;
40669;SDS011;26355;45.528;9.234;2023-03-23T06:08:45;18.00;;;6.07;;
40669;SDS011;26355;45.528;9.234;2023-03-23T06:11:11;15.85;;;6.13;;
40669;SDS011;26355;45.528;9.234;2023-03-23T06:13:36;13.95;;;5.63;;
40669;SDS011;26355;45.528;9.234;2023-03-23T06:16:02;16.83;;;5.93;;
40669;SDS011;26355;45.528;9.234;2023-03-23T06:18:29;16.38;;;6.35;;
40669;SDS011;26355;45.528;9.234;2023-03-23T06:20:58;15.30;;;5.43;;
40669;SDS011;26355;45.528;9.234;2023-03-23T06:23:25;16.17;;;5.37;;
40669;SDS011;26355;45.528;9.234;2023-03-23T06:25:54;14.38;;;5.38;;
40669;SDS011;26355;45.528;9.234;2023-03-23T06:28:22;15.98;;;5.95;;
40669;SDS011;26355;45.528;9.234;2023-03-23T06:30:48;14.98;;;5.90;;
40669;SDS011;26355;45.528;9.234;2023-03-23T06:33:14;16.87;;;5.93;;
40669;SDS011;26355;45.528;9.234;2023-03-23T06:35:40;17.27;;;5.70;;
40669;SDS011;26355;45.528;9.234;2023-03-23T06:38:06;16.05;;;5.60;;
40669;SDS011;26355;45.528;9.234;2023-03-23T06:40:31;13.73;;;5.10;;
40669;SDS011;26355;45.528;9.234;2023-03-23T06:42:57;14.63;;;5.70;;
40669;SDS011;26355;45.528;9.234;2023-03-23T06:45:24;15.18;;;5.05;;
40669;SDS011;26355;45.528;9.234;2023-03-23T06:47:50;16.42;;;5.20;;
40669;SDS011;26355;45.528;9.234;2023-03-23T06:50:15;13.95;;;5.38;;
40669;SDS011;26355;45.528;9.234;2023-03-23T06:52:45;14.93;;;5.82;;
40669;SDS011;26355;45.528;9.234;2023-03-23T06:55:11;14.20;;;5.10;;
40669;SDS011;26355;45.528;9.234;2023-03-23T06:57:38;14.63;;;5.32;;
40669;SDS011;26355;45.528;9.234;2023-03-23T07:00:04;15.07;;;5.32;;
40669;SDS011;26355;45.528;9.234;2023-03-23T07:02:34;14.77;;;5.70;;
40669;SDS011;26355;45.528;9.234;2023-03-23T07:05:00;17.75;;;5.30;;
40669;SDS011;26355;45.528;9.234;2023-03-23T07:07:26;14.07;;;5.30;;
40669;SDS011;26355;45.528;9.234;2023-03-23T07:09:52;17.40;;;6.05;;
40669;SDS011;26355;45.528;9.234;2023-03-23T07:12:17;14.85;;;6.15;;
40669;SDS011;26355;45.528;9.234;2023-03-23T07:14:43;16.85;;;5.35;;
40669;SDS011;26355;45.528;9.234;2023-03-23T07:17:08;14.73;;;5.05;;
40669;SDS011;26355;45.528;9.234;2023-03-23T07:19:34;13.23;;;4.30;;
40669;SDS011;26355;45.528;9.234;2023-03-23T07:22:01;17.27;;;5.55;;
40669;SDS011;26355;45.528;9.234;2023-03-23T07:24:29;16.35;;;4.90;;
40669;SDS011;26355;45.528;9.234;2023-03-23T07:26:54;13.82;;;4.47;;
40669;SDS011;26355;45.528;9.234;2023-03-23T07:29:21;12.63;;;4.45;;
40669;SDS011;26355;45.528;9.234;2023-03-23T07:31:46;12.63;;;4.05;;
40669;SDS011;26355;45.528;9.234;2023-03-23T07:34:12;11.88;;;3.97;;
40669;SDS011;26355;45.528;9.234;2023-03-23T07:36:38;12.50;;;3.90;;
40669;SDS011;26355;45.528;9.234;2023-03-23T07:39:04;10.48;;;4.10;;
40669;SDS011;26355;45.528;9.234;2023-03-23T07:41:33;12.35;;;4.00;;
40669;SDS011;26355;45.528;9.234;2023-03-23T07:43:59;12.85;;;4.60;;
40669;SDS011;26355;45.528;9.234;2023-03-23T07:46:25;11.00;;;3.83;;
40669;SDS011;26355;45.528;9.234;2023-03-23T07:48:51;13.30;;;4.10;;
40669;SDS011;26355;45.528;9.234;2023-03-23T07:51:17;10.40;;;4.00;;
40669;SDS011;26355;45.528;9.234;2023-03-23T07:53:43;13.15;;;4.20;;
40669;SDS011;26355;45.528;9.234;2023-03-23T07:56:12;13.18;;;4.30;;
40669;SDS011;26355;45.528;9.234;2023-03-23T08:01:09;15.40;;;4.28;;
40669;SDS011;26355;45.528;9.234;2023-03-23T08:03:35;15.13;;;4.88;;
40669;SDS011;26355;45.528;9.234;2023-03-23T08:06:02;17.65;;;4.47;;
40669;SDS011;26355;45.528;9.234;2023-03-23T08:08:28;15.13;;;4.25;;
40669;SDS011;26355;45.528;9.234;2023-03-23T08:10:53;13.23;;;4.45;;
40669;SDS011;26355;45.528;9.234;2023-03-23T08:13:19;14.02;;;4.25;;
40669;SDS011;26355;45.528;9.234;2023-03-23T08:15:45;15.48;;;4.80;;
40669;SDS011;26355;45.528;9.234;2023-03-23T08:18:10;12.88;;;4.28;;
40669;SDS011;26355;45.528;9.234;2023-03-23T08:20:36;12.82;;;4.30;;
40669;SDS011;26355;45.528;9.234;2023-03-23T08:23:03;11.95;;;4.40;;
40669;SDS011;26355;45.528;9.234;2023-03-23T08:25:29;17.58;;;4.95;;
40669;SDS011;26355;45.528;9.234;2023-03-23T08:27:58;15.23;;;4.60;;
40669;SDS011;26355;45.528;9.234;2023-03-23T08:30:26;14.73;;;4.88;;
40669;SDS011;26355;45.528;9.234;2023-03-23T08:35:19;16.88;;;4.60;;
40669;SDS011;26355;45.528;9.234;2023-03-23T08:37:46;13.73;;;4.45;;
40669;SDS011;26355;45.528;9.234;2023-03-23T08:40:16;14.05;;;5.25;;
40669;SDS011;26355;45.528;9.234;2023-03-23T08:42:44;12.20;;;4.10;;
40669;SDS011;26355;45.528;9.234;2023-03-23T08:45:11;10.65;;;4.10;;
40669;SDS011;26355;45.528;9.234;2023-03-23T08:47:40;13.65;;;4.20;;
40669;SDS011;26355;45.528;9.234;2023-03-23T08:50:06;13.93;;;4.65;;
40669;SDS011;26355;45.528;9.234;2023-03-23T08:52:39;13.93;;;4.50;;
40669;SDS011;26355;45.528;9.234;2023-03-23T08:55:04;13.60;;;5.13;;
40669;SDS011;26355;45.528;9.234;2023-03-23T08:57:30;13.40;;;4.30;;
40669;SDS011;26355;45.528;9.234;2023-03-23T08:59:56;12.65;;;4.63;;
40669;SDS011;26355;45.528;9.234;2023-03-23T09:02:38;13.40;;;4.60;;
40669;SDS011;26355;45.528;9.234;2023-03-23T09:05:05;13.90;;;4.82;;
40669;SDS011;26355;45.528;9.234;2023-03-23T09:07:32;14.93;;;5.45;;
40669;SDS011;26355;45.528;9.234;2023-03-23T09:09:57;20.60;;;5.38;;
40669;SDS011;26355;45.528;9.234;2023-03-23T09:12:23;13.73;;;4.32;;
40669;SDS011;26355;45.528;9.234;2023-03-23T09:14:48;16.15;;;4.63;;
40669;SDS011;26355;45.528;9.234;2023-03-23T09:17:14;20.52;;;5.00;;
40669;SDS011;26355;45.528;9.234;2023-03-23T09:19:40;18.55;;;5.28;;
40669;SDS011;26355;45.528;9.234;2023-03-23T09:22:06;12.00;;;4.03;;
40669;SDS011;26355;45.528;9.234;2023-03-23T09:24:33;12.90;;;4.70;;
40669;SDS011;26355;45.528;9.234;2023-03-23T09:26:58;17.80;;;5.50;;
40669;SDS011;26355;45.528;9.234;2023-03-23T09:29:25;17.65;;;5.70;;
40669;SDS011;26355;45.528;9.234;2023-03-23T09:31:51;14.23;;;5.05;;
40669;SDS011;26355;45.528;9.234;2023-03-23T09:34:18;17.33;;;5.40;;
40669;SDS011;26355;45.528;9.234;2023-03-23T09:36:43;16.17;;;5.60;;
40669;SDS011;26355;45.528;9.234;2023-03-23T09:39:09;16.52;;;5.20;;
40669;SDS011;26355;45.528;9.234;2023-03-23T09:41:40;19.13;;;8.57;;
40669;SDS011;26355;45.528;9.234;2023-03-23T09:52:01;15.88;;;5.60;;
40669;SDS011;26355;45.528;9.234;2023-03-23T09:54:39;15.57;;;6.00;;
40669;SDS011;26355;45.528;9.234;2023-03-23T09:59:51;15.60;;;5.30;;
40669;SDS011;26355;45.528;9.234;2023-03-23T10:02:30;14.65;;;5.70;;
40669;SDS011;26355;45.528;9.234;2023-03-23T10:05:03;15.40;;;6.10;;
40669;SDS011;26355;45.528;9.234;2023-03-23T10:07:50;14.52;;;6.10;;
40669;SDS011;26355;45.528;9.234;2023-03-23T10:10:15;19.33;;;6.60;;
40669;SDS011;26355;45.528;9.234;2023-03-23T10:12:46;14.98;;;5.97;;
40669;SDS011;26355;45.528;9.234;2023-03-23T10:15:30;16.50;;;6.38;;
40669;SDS011;26355;45.528;9.234;2023-03-23T10:18:25;16.27;;;6.60;;
40669;SDS011;26355;45.528;9.234;2023-03-23T10:21:17;16.10;;;7.40;;
40669;SDS011;26355;45.528;9.234;2023-03-23T10:29:19;16.42;;;6.65;;
40669;SDS011;26355;45.528;9.234;2023-03-23T10:31:51;15.52;;;6.90;;
40669;SDS011;26355;45.528;9.234;2023-03-23T10:37:05;19.88;;;8.20;;
40669;SDS011;26355;45.528;9.234;2023-03-23T10:39:40;21.45;;;8.98;;
40669;SDS011;26355;45.528;9.234;2023-03-23T10:42:11;17.83;;;8.18;;
40669;SDS011;26355;45.528;9.234;2023-03-23T10:44:37;20.63;;;7.90;;
40669;SDS011;26355;45.528;9.234;2023-03-23T10:47:05;19.20;;;8.90;;
40669;SDS011;26355;45.528;9.234;2023-03-23T10:49:43;18.55;;;8.55;;
40669;SDS011;26355;45.528;9.234;2023-03-23T10:52:22;21.20;;;8.80;;
40669;SDS011;26355;45.528;9.234;2023-03-23T10:54:56;18.55;;;9.45;;
40669;SDS011;26355;45.528;9.234;2023-03-23T10:57:23;20.95;;;9.18;;
40669;SDS011;26355;45.528;9.234;2023-03-23T10:59:58;18.40;;;10.38;;
40669;SDS011;26355;45.528;9.234;2023-03-23T11:02:42;25.58;;;11.25;;
40669;SDS011;26355;45.528;9.234;2023-03-23T11:05:15;19.60;;;10.00;;
40669;SDS011;26355;45.528;9.234;2023-03-23T11:07:50;19.95;;;10.63;;
40669;SDS011;26355;45.528;9.234;2023-03-23T11:11:08;21.15;;;10.60;;
40669;SDS011;26355;45.528;9.234;2023-03-23T11:13:16;21.77;;;10.48;;
40669;SDS011;26355;45.528;9.234;2023-03-23T11:15:43;20.05;;;11.10;;
40669;SDS011;26355;45.528;9.234;2023-03-23T11:20:43;22.40;;;11.20;;
40669;SDS011;26355;45.528;9.234;2023-03-23T11:25:50;19.40;;;10.35;;
40669;SDS011;26355;45.528;9.234;2023-03-23T11:28:30;21.35;;;11.23;;
40669;SDS011;26355;45.528;9.234;2023-03-23T11:30:59;23.33;;;10.50;;
40669;SDS011;26355;45.528;9.234;2023-03-23T11:33:34;20.08;;;10.88;;
40669;SDS011;26355;45.528;9.234;2023-03-23T11:36:03;21.15;;;11.32;;
40669;SDS011;26355;45.528;9.234;2023-03-23T11:38:31;18.40;;;9.88;;
40669;SDS011;26355;45.528;9.234;2023-03-23T11:40:58;19.75;;;10.38;;
40669;SDS011;26355;45.528;9.234;2023-03-23T11:43:24;20.52;;;11.20;;
40669;SDS011;26355;45.528;9.234;2023-03-23T11:48:58;18.98;;;10.35;;
40669;SDS011;26355;45.528;9.234;2023-03-23T11:51:42;22.25;;;10.95;;
40669;SDS011;26355;45.528;9.234;2023-03-23T11:56:47;19.35;;;10.88;;
40669;SDS011;26355;45.528;9.234;2023-03-23T11:59:14;19.77;;;9.85;;
40669;SDS011;26355;45.528;9.234;2023-03-23T12:01:50;19.48;;;10.68;;
40669;SDS011;26355;45.528;9.234;2023-03-23T12:07:10;19.98;;;10.35;;
40669;SDS011;26355;45.528;9.234;2023-03-23T12:12:32;19.55;;;10.02;;
40669;SDS011;26355;45.528;9.234;2023-03-23T12:23:34;18.27;;;9.57;;
40669;SDS011;26355;45.528;9.234;2023-03-23T12:34:20;22.98;;;12.18;;
40669;SDS011;26355;45.528;9.234;2023-03-23T12:47:37;21.48;;;11.77;;
40669;SDS011;26355;45.528;9.234;2023-03-23T12:55:14;20.95;;;11.23;;
40669;SDS011;26355;45.528;9.234;2023-03-23T13:00:33;19.92;;;11.10;;
40669;SDS011;26355;45.528;9.234;2023-03-23T13:03:25;24.20;;;11.93;;
40669;SDS011;26355;45.528;9.234;2023-03-23T13:08:59;19.27;;;11.25;;
40669;SDS011;26355;45.528;9.234;2023-03-23T13:11:33;20.55;;;10.60;;
40669;SDS011;26355;45.528;9.234;2023-03-23T13:14:26;21.60;;;10.27;;
40669;SDS011;26355;45.528;9.234;2023-03-23T13:22:47;21.15;;;10.48;;
40669;SDS011;26355;45.528;9.234;2023-03-23T13:25:41;19.73;;;9.60;;
40669;SDS011;26355;45.528;9.234;2023-03-23T13:28:16;17.95;;;9.65;;
40669;SDS011;26355;45.528;9.234;2023-03-23T13:30:55;19.60;;;9.85;;
40669;SDS011;26355;45.528;9.234;2023-03-23T13:33:25;20.52;;;9.18;;
40669;SDS011;26355;45.528;9.234;2023-03-23T13:35:54;19.40;;;8.95;;
40669;SDS011;26355;45.528;9.234;2023-03-23T13:38:23;18.60;;;9.75;;
40669;SDS011;26355;45.528;9.234;2023-03-23T13:40:53;19.55;;;10.30;;
40669;SDS011;26355;45.528;9.234;2023-03-23T13:43:32;19.52;;;9.40;;
40669;SDS011;26355;45.528;9.234;2023-03-23T13:46:13;16.83;;;8.32;;
40669;SDS011;26355;45.528;9.234;2023-03-23T13:52:17;18.13;;;8.40;;
40669;SDS011;26355;45.528;9.234;2023-03-23T13:54:39;16.65;;;8.68;;
40669;SDS011;26355;45.528;9.234;2023-03-23T13:57:26;19.05;;;9.13;;
40669;SDS011;26355;45.528;9.234;2023-03-23T13:59:59;18.92;;;8.82;;
40669;SDS011;26355;45.528;9.234;2023-03-23T14:05:38;20.70;;;8.25;;
40669;SDS011;26355;45.528;9.234;2023-03-23T14:10:58;18.73;;;7.60;;
40669;SDS011;26355;45.528;9.234;2023-03-23T14:13:41;17.30;;;8.57;;
40669;SDS011;26355;45.528;9.234;2023-03-23T14:18:56;19.65;;;10.05;;
40669;SDS011;26355;45.528;9.234;2023-03-23T14:21:58;21.83;;;11.02;;
40669;SDS011;26355;45.528;9.234;2023-03-23T14:24:22;19.47;;;9.97;;
40669;SDS011;26355;45.528;9.234;2023-03-23T14:27:36;19.75;;;10.02;;
40669;SDS011;26355;45.528;9.234;2023-03-23T14:29:40;21.40;;;9.98;;
40669;SDS011;26355;45.528;9.234;2023-03-23T14:32:07;17.70;;;8.68;;
40669;SDS011;26355;45.528;9.234;2023-03-23T14:34:37;21.00;;;9.10;;
40669;SDS011;26355;45.528;9.234;2023-03-23T14:37:02;20.85;;;9.77;;
40669;SDS011;26355;45.528;9.234;2023-03-23T14:39:29;19.77;;;8.77;;
40669;SDS011;26355;45.528;9.234;2023-03-23T14:42:01;18.50;;;8.70;;
40669;SDS011;26355;45.528;9.234;2023-03-23T14:44:34;17.88;;;7.95;;
40669;SDS011;26355;45.528;9.234;2023-03-23T14:47:07;19.77;;;8.13;;
40669;SDS011;26355;45.528;9.234;2023-03-23T14:49:45;19.73;;;8.07;;
40669;SDS011;26355;45.528;9.234;2023-03-23T14:52:11;18.83;;;9.15;;
40669;SDS011;26355;45.528;9.234;2023-03-23T14:54:42;20.83;;;9.05;;
40669;SDS011;26355;45.528;9.234;2023-03-23T14:57:11;17.48;;;8.45;;
40669;SDS011;26355;45.528;9.234;2023-03-23T14:59:45;19.40;;;9.05;;
40669;SDS011;26355;45.528;9.234;2023-03-23T15:02:34;19.85;;;9.88;;
40669;SDS011;26355;45.528;9.234;2023-03-23T15:05:01;19.00;;;9.20;;
40669;SDS011;26355;45.528;9.234;2023-03-23T15:07:35;19.63;;;9.07;;
40669;SDS011;26355;45.528;9.234;2023-03-23T15:10:05;17.48;;;8.32;;
40669;SDS011;26355;45.528;9.234;2023-03-23T15:12:32;19.08;;;8.93;;
40669;SDS011;26355;45.528;9.234;2023-03-23T15:17:27;19.42;;;8.80;;
40669;SDS011;26355;45.528;9.234;2023-03-23T15:19:55;19.48;;;8.45;;
40669;SDS011;26355;45.528;9.234;2023-03-23T15:22:29;17.63;;;8.23;;
40669;SDS011;26355;45.528;9.234;2023-03-23T15:25:07;17.25;;;7.43;;
40669;SDS011;26355;45.528;9.234;2023-03-23T15:27:40;18.40;;;8.23;;
40669;SDS011;26355;45.528;9.234;2023-03-23T15:30:46;18.00;;;8.10;;
40669;SDS011;26355;45.528;9.234;2023-03-23T15:33:11;20.55;;;8.18;;
40669;SDS011;26355;45.528;9.234;2023-03-23T15:35:38;19.45;;;7.63;;
40669;SDS011;26355;45.528;9.234;2023-03-23T15:38:14;18.85;;;8.13;;
40669;SDS011;26355;45.528;9.234;2023-03-23T15:40:50;17.08;;;7.60;;
40669;SDS011;26355;45.528;9.234;2023-03-23T15:43:22;17.75;;;7.88;;
40669;SDS011;26355;45.528;9.234;2023-03-23T15:46:00;18.17;;;8.18;;
40669;SDS011;26355;45.528;9.234;2023-03-23T15:48:44;17.90;;;7.70;;
40669;SDS011;26355;45.528;9.234;2023-03-23T15:51:12;22.10;;;8.75;;
40669;SDS011;26355;45.528;9.234;2023-03-23T15:53:38;18.83;;;8.70;;
40669;SDS011;26355;45.528;9.234;2023-03-23T15:56:06;17.23;;;8.07;;
40669;SDS011;26355;45.528;9.234;2023-03-23T15:58:33;18.92;;;6.82;;
40669;SDS011;26355;45.528;9.234;2023-03-23T16:03:31;17.77;;;6.97;;
40669;SDS011;26355;45.528;9.234;2023-03-23T16:06:02;18.05;;;7.43;;
40669;SDS011;26355;45.528;9.234;2023-03-23T16:08:28;15.85;;;6.00;;
40669;SDS011;26355;45.528;9.234;2023-03-23T16:10:54;17.58;;;6.90;;
40669;SDS011;26355;45.528;9.234;2023-03-23T16:13:20;16.38;;;6.80;;
40669;SDS011;26355;45.528;9.234;2023-03-23T16:15:46;17.52;;;7.43;;
40669;SDS011;26355;45.528;9.234;2023-03-23T16:18:20;16.83;;;6.40;;
40669;SDS011;26355;45.528;9.234;2023-03-23T16:20:47;17.73;;;7.65;;
40669;SDS011;26355;45.528;9.234;2023-03-23T16:23:13;18.52;;;6.97;;
40669;SDS011;26355;45.528;9.234;2023-03-23T16:25:39;19.33;;;7.45;;
40669;SDS011;26355;45.528;9.234;2023-03-23T16:28:05;16.55;;;7.47;;
40669;SDS011;26355;45.528;9.234;2023-03-23T16:30:33;18.45;;;8.02;;
40669;SDS011;26355;45.528;9.234;2023-03-23T16:33:02;16.33;;;7.30;;
40669;SDS011;26355;45.528;9.234;2023-03-23T16:35:28;17.70;;;7.07;;
40669;SDS011;26355;45.528;9.234;2023-03-23T16:37:54;17.05;;;7.43;;
40669;SDS011;26355;45.528;9.234;2023-03-23T16:40:21;20.42;;;6.80;;
40669;SDS011;26355;45.528;9.234;2023-03-23T16:42:47;16.33;;;6.80;;
40669;SDS011;26355;45.528;9.234;2023-03-23T16:45:14;19.90;;;7.22;;
40669;SDS011;26355;45.528;9.234;2023-03-23T16:47:41;19.10;;;7.70;;
40669;SDS011;26355;45.528;9.234;2023-03-23T16:50:09;18.57;;;7.17;;
40669;SDS011;26355;45.528;9.234;2023-03-23T16:52:37;19.40;;;7.13;;
40669;SDS011;26355;45.528;9.234;2023-03-23T16:55:04;17.15;;;7.15;;
40669;SDS011;26355;45.528;9.234;2023-03-23T16:57:31;17.63;;;7.10;;
40669;SDS011;26355;45.528;9.234;2023-03-23T16:59:59;18.48;;;6.47;;
40669;SDS011;26355;45.528;9.234;2023-03-23T17:02:24;17.77;;;6.03;;
40669;SDS011;26355;45.528;9.234;2023-03-23T17:04:50;16.95;;;6.75;;